Time;durP1;ratioP1;P1;durP2;ratioP2;P2;SDS_P1;SDS_P2;PMS_P1;PMS_P2;Temp;Humidity;BMP_temperature;BMP_pressure;BME280_temperature;BME280_humidity;BME280_pressure;Samples;Min_cycle;Max_cycle;Signal;HPM_P1;HPM_P2
2023/06/15 00:02:12;;;;;;;3.90;2.50;;;;;;;;;;5000053;28;20045;-78
2023/06/15 00:04:40;;;;;;;5.60;2.97;;;;;;;;;;5002801;28;20040;-78
2023/06/15 00:07:06;;;;;;;6.10;2.65;;;;;;;;;;4997270;28;20026;-78
2023/06/15 00:09:31;;;;;;;3.42;2.80;;;;;;;;;;4996234;28;20030;-79
2023/06/15 00:11:57;;;;;;;7.38;2.42;;;;;;;;;;5005587;28;20026;-79
2023/06/15 00:14:22;;;;;;;11.15;2.88;;;;;;;;;;4999185;28;20036;-79
2023/06/15 00:16:52;;;;;;;4.28;2.90;;;;;;;;;;4999794;28;20026;-79
2023/06/15 00:19:18;;;;;;;4.38;2.33;;;;;;;;;;5000213;28;20428;-80
2023/06/15 00:21:44;;;;;;;4.93;2.67;;;;;;;;;;5001461;28;20401;-79
2023/06/15 00:24:10;;;;;;;5.03;2.58;;;;;;;;;;4981363;28;20027;-80
2023/06/15 00:26:36;;;;;;;3.60;2.38;;;;;;;;;;4998943;28;20026;-78
2023/06/15 00:29:17;;;;;;;4.22;2.55;;;;;;;;;;4976752;28;20046;-80
2023/06/15 00:31:42;;;;;;;4.15;2.47;;;;;;;;;;4994218;28;20127;-80
2023/06/15 00:34:07;;;;;;;4.05;2.63;;;;;;;;;;4997208;28;20392;-79
2023/06/15 00:36:33;;;;;;;4.80;2.97;;;;;;;;;;4981285;28;20038;-79
2023/06/15 00:38:58;;;;;;;6.00;2.78;;;;;;;;;;4998735;28;20053;-78
2023/06/15 00:41:23;;;;;;;3.88;2.75;;;;;;;;;;4984385;28;20022;-79
2023/06/15 00:43:49;;;;;;;2.97;2.17;;;;;;;;;;5001877;28;20025;-79
2023/06/15 00:46:15;;;;;;;4.28;2.75;;;;;;;;;;4984456;28;20373;-78
2023/06/15 00:48:41;;;;;;;4.57;2.50;;;;;;;;;;4983553;28;20050;-80
2023/06/15 00:51:08;;;;;;;6.32;2.70;;;;;;;;;;4999716;28;20030;-79
2023/06/15 00:53:33;;;;;;;3.05;2.22;;;;;;;;;;4999400;28;20038;-79
2023/06/15 00:55:59;;;;;;;3.85;2.70;;;;;;;;;;4995773;28;20045;-79
2023/06/15 00:58:25;;;;;;;3.80;2.97;;;;;;;;;;4992946;28;20084;-80
2023/06/15 01:00:53;;;;;;;6.38;2.72;;;;;;;;;;4986982;28;20029;-79
2023/06/15 01:03:20;;;;;;;3.03;2.72;;;;;;;;;;4979187;28;20030;-79
2023/06/15 01:05:52;;;;;;;4.32;3.00;;;;;;;;;;4985096;28;20029;-79
2023/06/15 01:08:20;;;;;;;3.63;2.50;;;;;;;;;;4981837;28;20539;-80
2023/06/15 01:10:47;;;;;;;6.25;3.05;;;;;;;;;;4999857;28;20042;-79
2023/06/15 01:13:12;;;;;;;6.00;2.80;;;;;;;;;;5000369;28;20052;-79
2023/06/15 01:15:40;;;;;;;3.60;2.50;;;;;;;;;;4998271;28;20035;-79
2023/06/15 01:18:07;;;;;;;4.05;3.13;;;;;;;;;;5001533;28;20033;-79
2023/06/15 01:20:40;;;;;;;6.07;2.67;;;;;;;;;;4977272;28;20022;-79
2023/06/15 01:23:30;;;;;;;3.78;2.65;;;;;;;;;;4998052;28;20030;-80
2023/06/15 01:26:05;;;;;;;4.72;3.10;;;;;;;;;;4999287;28;20496;-78
2023/06/15 01:28:32;;;;;;;3.10;2.38;;;;;;;;;;4995967;28;20038;-80
2023/06/15 01:30:58;;;;;;;3.60;2.85;;;;;;;;;;4997774;28;20082;-80
2023/06/15 01:33:25;;;;;;;4.78;2.90;;;;;;;;;;5009656;28;20049;-80
2023/06/15 01:35:51;;;;;;;3.78;2.80;;;;;;;;;;5014906;28;20157;-78
2023/06/15 01:38:20;;;;;;;3.85;2.97;;;;;;;;;;5014773;28;20037;-79
2023/06/15 01:40:48;;;;;;;5.15;3.20;;;;;;;;;;5008190;28;20022;-78
2023/06/15 01:43:17;;;;;;;4.78;2.88;;;;;;;;;;5007296;28;20041;-77
2023/06/15 01:45:44;;;;;;;4.28;3.35;;;;;;;;;;5003058;28;20121;-80
2023/06/15 01:48:10;;;;;;;3.45;2.80;;;;;;;;;;5000518;28;20049;-79
2023/06/15 01:50:36;;;;;;;8.98;2.88;;;;;;;;;;5007189;28;20023;-79
2023/06/15 01:53:02;;;;;;;4.50;2.92;;;;;;;;;;5000810;28;20034;-79
2023/06/15 01:55:28;;;;;;;5.57;2.88;;;;;;;;;;4998562;28;20031;-78
2023/06/15 01:57:53;;;;;;;4.82;2.88;;;;;;;;;;5008109;28;20026;-79
2023/06/15 02:00:21;;;;;;;3.20;2.58;;;;;;;;;;4998988;28;20037;-79
2023/06/15 02:02:47;;;;;;;4.20;2.88;;;;;;;;;;4997581;28;20026;-78
2023/06/15 02:05:12;;;;;;;3.70;2.90;;;;;;;;;;4996475;28;20112;-79
2023/06/15 02:07:37;;;;;;;9.60;3.15;;;;;;;;;;4979124;28;20034;-79
2023/06/15 02:10:03;;;;;;;3.97;3.00;;;;;;;;;;4997372;28;20038;-79
2023/06/15 02:12:28;;;;;;;4.13;2.83;;;;;;;;;;4980788;28;20022;-79
2023/06/15 02:14:54;;;;;;;3.63;2.88;;;;;;;;;;4999275;28;20523;-79
2023/06/15 02:17:19;;;;;;;5.93;2.85;;;;;;;;;;5002821;28;20048;-77
2023/06/15 02:19:45;;;;;;;4.60;3.08;;;;;;;;;;5005533;28;20053;-79
2023/06/15 02:22:11;;;;;;;3.97;2.95;;;;;;;;;;5003899;28;20026;-78
2023/06/15 02:24:36;;;;;;;4.00;2.65;;;;;;;;;;5003039;28;20023;-79
2023/06/15 02:27:01;;;;;;;4.38;2.78;;;;;;;;;;5004432;28;20093;-78
2023/06/15 02:29:27;;;;;;;3.55;2.72;;;;;;;;;;4986045;28;20105;-78
2023/06/15 02:31:52;;;;;;;4.47;3.00;;;;;;;;;;5002990;28;20090;-78
2023/06/15 02:34:17;;;;;;;4.18;2.80;;;;;;;;;;5003753;28;20030;-78
2023/06/15 02:36:43;;;;;;;3.72;3.13;;;;;;;;;;5004372;28;20030;-79
2023/06/15 02:39:10;;;;;;;4.40;3.25;;;;;;;;;;5001880;28;20042;-79
2023/06/15 02:41:36;;;;;;;4.30;3.05;;;;;;;;;;4978814;28;20018;-79
2023/06/15 02:44:02;;;;;;;10.38;3.10;;;;;;;;;;5002124;28;20022;-78
2023/06/15 02:46:27;;;;;;;3.58;2.78;;;;;;;;;;5005085;28;20053;-79
2023/06/15 02:48:53;;;;;;;4.63;3.22;;;;;;;;;;5003982;28;20046;-80
2023/06/15 02:51:21;;;;;;;5.00;3.42;;;;;;;;;;4985873;28;20076;-79
2023/06/15 02:53:47;;;;;;;3.83;3.25;;;;;;;;;;5003923;28;20026;-79
2023/06/15 02:56:18;;;;;;;5.22;3.10;;;;;;;;;;5025044;28;20040;-80
2023/06/15 02:58:54;;;;;;;3.65;2.67;;;;;;;;;;5002997;28;20121;-79
2023/06/15 03:01:21;;;;;;;4.50;3.17;;;;;;;;;;5013222;28;20081;-79
2023/06/15 03:03:47;;;;;;;9.43;3.08;;;;;;;;;;5004723;28;20021;-79
2023/06/15 03:06:14;;;;;;;4.85;3.42;;;;;;;;;;5004561;28;20022;-79
2023/06/15 03:08:40;;;;;;;4.25;3.38;;;;;;;;;;4985275;28;20034;-78
2023/06/15 03:11:06;;;;;;;3.28;2.95;;;;;;;;;;4983930;28;20581;-78
2023/06/15 03:13:32;;;;;;;3.63;2.70;;;;;;;;;;5003033;28;20030;-78
2023/06/15 03:16:00;;;;;;;4.72;2.80;;;;;;;;;;5003780;28;20105;-79
2023/06/15 03:18:27;;;;;;;5.30;3.42;;;;;;;;;;5002658;28;20029;-78
2023/06/15 03:20:57;;;;;;;4.95;2.88;;;;;;;;;;4995652;28;20044;-80
2023/06/15 03:23:23;;;;;;;3.85;2.88;;;;;;;;;;4997808;28;20076;-79
2023/06/15 03:25:51;;;;;;;4.57;3.20;;;;;;;;;;4990065;28;20018;-79
2023/06/15 03:28:23;;;;;;;5.97;2.90;;;;;;;;;;5002767;28;20041;-80
2023/06/15 03:30:51;;;;;;;2.83;2.42;;;;;;;;;;5006099;28;20124;-79
2023/06/15 03:33:17;;;;;;;3.92;3.00;;;;;;;;;;5007191;28;20400;-80
2023/06/15 03:35:42;;;;;;;3.35;3.05;;;;;;;;;;5002112;28;20117;-81
2023/06/15 03:38:08;;;;;;;3.58;2.90;;;;;;;;;;5067937;23;20038;-79
2023/06/15 03:40:37;;;;;;;5.75;3.25;;;;;;;;;;4982101;28;20058;-78
2023/06/15 03:43:02;;;;;;;5.05;3.20;;;;;;;;;;4999575;28;20038;-78
2023/06/15 03:45:27;;;;;;;3.78;2.85;;;;;;;;;;4998150;28;20027;-78
2023/06/15 03:47:53;;;;;;;6.88;3.17;;;;;;;;;;4994700;28;20081;-78
2023/06/15 03:50:18;;;;;;;3.33;2.95;;;;;;;;;;4983625;28;20115;-78
2023/06/15 03:52:44;;;;;;;3.65;3.08;;;;;;;;;;4984606;28;20066;-78
2023/06/15 03:55:09;;;;;;;5.65;3.30;;;;;;;;;;4959694;28;20428;-78
2023/06/15 03:57:34;;;;;;;5.82;3.08;;;;;;;;;;4959262;28;20038;-78
2023/06/15 04:00:00;;;;;;;7.88;3.42;;;;;;;;;;4977099;28;20429;-78
2023/06/15 04:02:25;;;;;;;5.50;3.00;;;;;;;;;;4979929;28;20420;-79
2023/06/15 04:04:55;;;;;;;5.63;3.38;;;;;;;;;;4967088;28;20544;-78
2023/06/15 04:07:20;;;;;;;4.90;3.58;;;;;;;;;;4974459;28;20455;-79
2023/06/15 04:09:45;;;;;;;5.15;3.70;;;;;;;;;;4962270;28;20515;-78
2023/06/15 04:12:11;;;;;;;13.52;3.58;;;;;;;;;;4977168;28;20393;-78
2023/06/15 04:14:36;;;;;;;7.07;3.65;;;;;;;;;;4967072;28;20022;-78
2023/06/15 04:17:02;;;;;;;12.13;3.40;;;;;;;;;;4978452;28;20077;-79
2023/06/15 04:19:28;;;;;;;5.97;4.00;;;;;;;;;;4963163;28;20042;-79
2023/06/15 04:21:53;;;;;;;4.70;3.42;;;;;;;;;;4967777;28;20027;-79
2023/06/15 04:24:19;;;;;;;4.50;3.30;;;;;;;;;;4966300;28;20560;-79
2023/06/15 04:26:44;;;;;;;5.60;3.40;;;;;;;;;;4987785;28;20101;-78
2023/06/15 04:29:10;;;;;;;7.70;3.40;;;;;;;;;;4981699;28;20449;-79
2023/06/15 04:31:36;;;;;;;6.53;3.67;;;;;;;;;;4967012;28;20023;-78
2023/06/15 04:34:04;;;;;;;4.75;3.03;;;;;;;;;;4977558;28;20034;-79
2023/06/15 04:36:31;;;;;;;9.50;3.17;;;;;;;;;;4963121;28;20057;-77
2023/06/15 04:38:57;;;;;;;4.15;3.30;;;;;;;;;;4961615;28;20444;-78
2023/06/15 04:41:24;;;;;;;5.50;3.33;;;;;;;;;;4976638;28;20026;-78
2023/06/15 04:43:50;;;;;;;6.90;3.53;;;;;;;;;;4976675;28;20082;-79
2023/06/15 04:46:16;;;;;;;7.45;3.50;;;;;;;;;;4974182;28;20030;-79
2023/06/15 04:48:43;;;;;;;6.38;3.47;;;;;;;;;;4969962;28;20031;-79
2023/06/15 04:51:12;;;;;;;7.10;3.72;;;;;;;;;;4975063;28;20110;-78
2023/06/15 04:53:38;;;;;;;4.45;3.60;;;;;;;;;;4977535;28;20289;-78
2023/06/15 04:56:03;;;;;;;7.07;2.97;;;;;;;;;;4964744;28;20031;-79
2023/06/15 04:58:29;;;;;;;7.05;3.63;;;;;;;;;;4976507;28;20055;-79
2023/06/15 05:00:54;;;;;;;6.00;4.07;;;;;;;;;;4961041;28;20027;-79
2023/06/15 05:03:19;;;;;;;6.13;3.55;;;;;;;;;;4975047;28;20069;-79
2023/06/15 05:05:45;;;;;;;5.88;3.35;;;;;;;;;;4975215;28;20030;-79
2023/06/15 05:08:13;;;;;;;7.88;3.78;;;;;;;;;;4959714;28;20098;-79
2023/06/15 05:10:38;;;;;;;5.00;3.47;;;;;;;;;;4976168;28;20039;-79
2023/06/15 05:13:04;;;;;;;6.28;3.58;;;;;;;;;;4976743;28;20026;-79
2023/06/15 05:15:29;;;;;;;4.88;3.67;;;;;;;;;;4976573;28;20038;-79
2023/06/15 05:17:54;;;;;;;4.93;3.22;;;;;;;;;;4981849;28;20400;-79
2023/06/15 05:20:20;;;;;;;5.88;3.80;;;;;;;;;;4958253;28;20015;-79
2023/06/15 05:22:45;;;;;;;3.60;3.22;;;;;;;;;;4975174;28;20019;-79
2023/06/15 05:25:11;;;;;;;7.32;3.50;;;;;;;;;;4975128;28;20824;-78
2023/06/15 05:27:37;;;;;;;5.50;3.70;;;;;;;;;;4980250;28;20027;-79
2023/06/15 05:30:05;;;;;;;7.68;3.58;;;;;;;;;;4974868;28;20110;-79
2023/06/15 05:32:30;;;;;;;5.10;3.38;;;;;;;;;;4982841;28;20564;-79
2023/06/15 05:34:55;;;;;;;8.02;3.10;;;;;;;;;;4977845;28;20050;-79
2023/06/15 05:37:21;;;;;;;5.15;3.03;;;;;;;;;;4967474;28;20493;-78
2023/06/15 05:39:46;;;;;;;5.78;3.10;;;;;;;;;;4987121;28;20027;-79
2023/06/15 05:42:11;;;;;;;3.22;2.60;;;;;;;;;;4972262;28;20023;-79
2023/06/15 05:44:37;;;;;;;3.60;2.95;;;;;;;;;;4977941;28;20491;-78
2023/06/15 05:47:03;;;;;;;5.20;2.85;;;;;;;;;;4972844;28;20038;-79
2023/06/15 05:49:28;;;;;;;6.05;3.03;;;;;;;;;;4964329;28;20031;-79
2023/06/15 05:51:55;;;;;;;3.40;2.97;;;;;;;;;;4978790;28;20041;-80
2023/06/15 05:54:20;;;;;;;3.88;2.55;;;;;;;;;;4979736;28;20481;-79
2023/06/15 05:56:45;;;;;;;4.22;3.05;;;;;;;;;;4980609;28;20051;-79
2023/06/15 05:59:11;;;;;;;6.18;2.65;;;;;;;;;;4979540;28;20485;-78
2023/06/15 06:01:36;;;;;;;4.20;2.95;;;;;;;;;;4964602;28;20465;-80
2023/06/15 06:04:02;;;;;;;4.57;3.20;;;;;;;;;;4978494;28;20378;-80
2023/06/15 06:06:27;;;;;;;6.15;2.97;;;;;;;;;;4983310;28;20162;-81
2023/06/15 06:08:52;;;;;;;8.60;3.08;;;;;;;;;;4982078;28;20059;-80
2023/06/15 06:11:18;;;;;;;3.65;2.60;;;;;;;;;;4978108;28;20667;-79
2023/06/15 06:13:43;;;;;;;7.35;2.92;;;;;;;;;;4978932;28;20082;-80
2023/06/15 06:16:08;;;;;;;4.60;2.97;;;;;;;;;;4965456;28;20063;-81
2023/06/15 06:18:34;;;;;;;5.05;2.80;;;;;;;;;;4982832;28;20497;-78
2023/06/15 06:20:59;;;;;;;6.82;2.95;;;;;;;;;;4980584;28;20481;-82
2023/06/15 06:23:24;;;;;;;4.32;2.80;;;;;;;;;;4980864;28;20492;-82
2023/06/15 06:25:50;;;;;;;5.10;2.70;;;;;;;;;;4983868;28;20031;-81
2023/06/15 06:28:15;;;;;;;4.05;2.92;;;;;;;;;;4962184;28;20022;-82
2023/06/15 06:30:40;;;;;;;8.10;3.05;;;;;;;;;;4972761;28;20039;-82
2023/06/15 06:33:06;;;;;;;3.60;2.97;;;;;;;;;;4960901;28;20043;-82
2023/06/15 06:35:31;;;;;;;5.15;2.95;;;;;;;;;;4982937;28;20263;-81
2023/06/15 06:37:57;;;;;;;4.50;2.92;;;;;;;;;;4973350;28;20153;-82
2023/06/15 06:40:22;;;;;;;5.13;3.03;;;;;;;;;;4983020;28;20074;-82
2023/06/15 06:42:47;;;;;;;4.78;2.85;;;;;;;;;;4964758;28;20030;-81
2023/06/15 06:45:13;;;;;;;4.22;3.03;;;;;;;;;;4964016;28;20417;-81
2023/06/15 06:47:38;;;;;;;4.70;3.03;;;;;;;;;;4985048;28;20026;-81
2023/06/15 06:50:06;;;;;;;5.82;3.00;;;;;;;;;;4985609;28;20067;-81
2023/06/15 06:52:31;;;;;;;5.95;2.83;;;;;;;;;;4966009;28;20548;-81
2023/06/15 06:54:57;;;;;;;7.95;3.95;;;;;;;;;;4964763;28;20110;-81
2023/06/15 06:57:22;;;;;;;4.78;2.80;;;;;;;;;;4974478;28;20061;-81
2023/06/15 06:59:47;;;;;;;3.63;2.80;;;;;;;;;;4987749;28;20026;-82
2023/06/15 07:02:13;;;;;;;10.07;3.60;;;;;;;;;;4965492;28;20023;-82
2023/06/15 07:04:38;;;;;;;8.05;3.15;;;;;;;;;;4976273;28;20042;-81
2023/06/15 07:07:04;;;;;;;3.45;2.47;;;;;;;;;;4971446;28;20027;-81
2023/06/15 07:09:30;;;;;;;3.50;2.95;;;;;;;;;;4973551;28;20027;-80
2023/06/15 07:11:56;;;;;;;4.15;3.03;;;;;;;;;;4995645;28;20030;-81
2023/06/15 07:14:21;;;;;;;3.70;2.90;;;;;;;;;;4995062;28;20027;-80
2023/06/15 07:16:46;;;;;;;3.78;2.58;;;;;;;;;;5002803;28;20006;-81
2023/06/15 07:19:12;;;;;;;6.45;3.10;;;;;;;;;;4971418;28;20038;-81
2023/06/15 07:21:39;;;;;;;4.68;2.60;;;;;;;;;;4979623;28;20026;-82
2023/06/15 07:24:04;;;;;;;2.97;2.67;;;;;;;;;;4994738;28;20034;-82
2023/06/15 07:26:30;;;;;;;5.25;2.80;;;;;;;;;;4998447;28;20022;-82
2023/06/15 07:28:55;;;;;;;6.13;2.55;;;;;;;;;;4998972;28;20045;-83
2023/06/15 07:31:21;;;;;;;4.63;3.00;;;;;;;;;;4977015;28;20196;-82
2023/06/15 07:33:46;;;;;;;9.18;3.00;;;;;;;;;;4978283;28;20042;-82
2023/06/15 07:36:11;;;;;;;7.80;2.58;;;;;;;;;;4976515;28;20019;-83
2023/06/15 07:38:37;;;;;;;4.07;2.38;;;;;;;;;;4992877;28;20034;-82
2023/06/15 07:41:02;;;;;;;7.90;2.78;;;;;;;;;;4966276;28;20023;-82
2023/06/15 07:43:28;;;;;;;2.90;2.63;;;;;;;;;;4994856;28;20030;-83
2023/06/15 07:45:53;;;;;;;3.97;2.55;;;;;;;;;;4968704;28;20079;-83
2023/06/15 07:48:21;;;;;;;6.97;2.88;;;;;;;;;;4968215;28;20058;-83
2023/06/15 07:50:46;;;;;;;4.22;2.85;;;;;;;;;;4964997;28;20034;-83
2023/06/15 07:53:12;;;;;;;4.75;2.60;;;;;;;;;;4971000;28;20072;-83
2023/06/15 07:55:43;;;;;;;7.53;2.60;;;;;;;;;;4966631;28;20035;-84
2023/06/15 07:58:12;;;;;;;4.60;2.80;;;;;;;;;;4990862;28;20050;-83
2023/06/15 08:00:38;;;;;;;7.63;2.95;;;;;;;;;;4965371;28;20054;-84
2023/06/15 08:03:03;;;;;;;4.25;2.80;;;;;;;;;;4985451;28;20039;-84
2023/06/15 08:05:29;;;;;;;9.20;3.20;;;;;;;;;;4982129;28;20089;-84
2023/06/15 08:07:57;;;;;;;4.82;2.88;;;;;;;;;;4980449;28;20034;-86
2023/06/15 08:10:31;;;;;;;3.00;2.63;;;;;;;;;;4962702;28;20117;-83
2023/06/15 08:12:57;;;;;;;3.08;2.47;;;;;;;;;;4980666;28;20023;-83
2023/06/15 08:15:52;;;;;;;8.07;2.92;;;;;;;;;;4956912;28;20049;-84
2023/06/15 08:18:17;;;;;;;5.78;2.88;;;;;;;;;;4977222;28;20027;-86
2023/06/15 08:20:43;;;;;;;4.63;3.10;;;;;;;;;;4962772;28;20038;-84
2023/06/15 08:23:08;;;;;;;4.28;2.67;;;;;;;;;;4981570;28;20110;-84
2023/06/15 08:25:34;;;;;;;5.15;3.10;;;;;;;;;;4975803;28;20190;-84
2023/06/15 08:28:01;;;;;;;6.07;2.55;;;;;;;;;;4971299;28;20527;-84
2023/06/15 08:34:40;;;;;;;2.65;2.45;;;;;;;;;;4913947;28;20063;-84
2023/06/15 08:37:05;;;;;;;3.00;2.70;;;;;;;;;;4953309;28;20481;-84
2023/06/15 08:43:35;;;;;;;10.05;2.67;;;;;;;;;;4911230;29;20469;-84
2023/06/15 08:49:25;;;;;;;2.95;2.60;;;;;;;;;;4900578;29;20093;-85
2023/06/15 08:51:53;;;;;;;3.03;2.67;;;;;;;;;;4900174;29;20093;-85
2023/06/15 08:54:21;;;;;;;3.65;2.85;;;;;;;;;;4961880;28;20038;-84
2023/06/15 08:56:49;;;;;;;6.15;2.30;;;;;;;;;;4964463;28;20041;-85
2023/06/15 08:59:18;;;;;;;5.70;3.30;;;;;;;;;;4980718;28;20077;-84
2023/06/15 09:01:44;;;;;;;4.35;2.40;;;;;;;;;;4970068;28;20023;-85
2023/06/15 09:07:37;;;;;;;3.25;2.40;;;;;;;;;;4992645;28;20073;-85
2023/06/15 09:10:16;;;;;;;3.63;2.60;;;;;;;;;;4970170;28;20026;-84
2023/06/15 09:12:42;;;;;;;2.80;2.60;;;;;;;;;;4963465;28;20051;-85
2023/06/15 09:15:08;;;;;;;4.38;2.78;;;;;;;;;;4986970;28;20018;-85
2023/06/15 09:17:36;;;;;;;3.92;2.70;;;;;;;;;;4990009;28;20052;-84
2023/06/15 09:20:02;;;;;;;4.88;2.80;;;;;;;;;;4982408;28;20026;-84
2023/06/15 09:22:29;;;;;;;8.65;2.90;;;;;;;;;;4963319;28;20034;-83
2023/06/15 09:25:03;;;;;;;4.03;2.88;;;;;;;;;;4981537;28;20042;-85
2023/06/15 09:27:31;;;;;;;5.97;2.63;;;;;;;;;;4959044;28;20473;-84
2023/06/15 09:30:07;;;;;;;3.60;2.55;;;;;;;;;;4985027;28;20045;-84
2023/06/15 09:32:33;;;;;;;5.43;2.58;;;;;;;;;;4958611;28;20130;-84
2023/06/15 09:34:59;;;;;;;4.13;2.50;;;;;;;;;;4985191;28;20117;-84
2023/06/15 09:37:27;;;;;;;3.42;2.40;;;;;;;;;;4991607;28;20026;-83
2023/06/15 09:39:53;;;;;;;4.68;2.80;;;;;;;;;;5046092;22;20568;-83
2023/06/15 09:42:24;;;;;;;10.00;2.40;;;;;;;;;;5034932;28;20085;-82
2023/06/15 09:44:53;;;;;;;4.63;2.65;;;;;;;;;;5048574;28;20040;-82
2023/06/15 09:47:19;;;;;;;4.47;2.30;;;;;;;;;;5041143;28;20021;-83
2023/06/15 09:49:44;;;;;;;4.75;2.30;;;;;;;;;;5003395;28;20026;-83
2023/06/15 09:52:13;;;;;;;4.28;2.38;;;;;;;;;;5021661;28;20117;-82
2023/06/15 09:54:39;;;;;;;5.35;2.60;;;;;;;;;;5022729;28;20025;-82
2023/06/15 09:57:04;;;;;;;2.83;2.35;;;;;;;;;;5002214;28;20036;-83
2023/06/15 09:59:30;;;;;;;4.22;2.63;;;;;;;;;;5009723;28;20025;-84
2023/06/15 10:01:57;;;;;;;6.20;2.55;;;;;;;;;;5010715;28;20060;-81
2023/06/15 10:04:27;;;;;;;5.32;2.25;;;;;;;;;;5001209;28;20036;-82
2023/06/15 10:07:00;;;;;;;3.55;2.30;;;;;;;;;;5004916;28;20029;-82
2023/06/15 10:09:29;;;;;;;2.03;1.92;;;;;;;;;;5006856;28;20033;-81
2023/06/15 10:12:06;;;;;;;3.17;2.00;;;;;;;;;;5015762;28;20112;-81
2023/06/15 10:14:55;;;;;;;4.28;2.30;;;;;;;;;;5012896;28;20484;-82
2023/06/15 10:17:30;;;;;;;3.08;2.63;;;;;;;;;;5020336;28;20018;-83
2023/06/15 10:20:07;;;;;;;3.38;2.53;;;;;;;;;;5008320;28;20035;-83
2023/06/15 10:22:33;;;;;;;3.50;2.33;;;;;;;;;;5010122;28;20025;-83
2023/06/15 10:24:59;;;;;;;4.00;2.65;;;;;;;;;;5019224;28;20427;-86
2023/06/15 10:27:26;;;;;;;5.78;2.35;;;;;;;;;;5009093;28;20517;-83
2023/06/15 10:30:06;;;;;;;3.55;2.03;;;;;;;;;;5017317;28;20026;-83
2023/06/15 10:33:11;;;;;;;2.80;2.45;;;;;;;;;;4997768;28;20192;-83
2023/06/15 10:35:44;;;;;;;4.13;2.28;;;;;;;;;;4997170;28;20066;-83
2023/06/15 10:38:24;;;;;;;7.07;2.60;;;;;;;;;;5022902;28;20075;-83
2023/06/15 10:40:51;;;;;;;5.85;2.33;;;;;;;;;;5016665;28;20026;-82
2023/06/15 10:43:20;;;;;;;3.85;3.00;;;;;;;;;;5007165;28;20013;-82
2023/06/15 10:45:47;;;;;;;3.25;2.65;;;;;;;;;;5018972;28;20060;-82
2023/06/15 10:48:24;;;;;;;4.47;2.60;;;;;;;;;;5013075;28;20361;-83
2023/06/15 10:50:51;;;;;;;4.35;2.67;;;;;;;;;;5021314;28;20105;-81
2023/06/15 10:53:38;;;;;;;5.60;2.70;;;;;;;;;;5022533;28;20029;-82
2023/06/15 10:56:20;;;;;;;6.30;2.58;;;;;;;;;;5019473;28;20072;-81
2023/06/15 10:59:00;;;;;;;6.55;2.90;;;;;;;;;;5005692;28;20022;-81
2023/06/15 11:01:28;;;;;;;3.95;2.33;;;;;;;;;;5010919;28;20496;-81
2023/06/15 11:03:55;;;;;;;3.65;2.30;;;;;;;;;;5011218;28;20074;-81
2023/06/15 11:06:28;;;;;;;3.17;2.30;;;;;;;;;;4989336;28;20033;-82
2023/06/15 11:09:01;;;;;;;2.58;2.33;;;;;;;;;;5002967;28;20057;-82
2023/06/15 11:11:31;;;;;;;4.78;2.40;;;;;;;;;;5015469;28;20086;-81
2023/06/15 11:14:19;;;;;;;3.67;2.50;;;;;;;;;;5012405;28;20041;-82
2023/06/15 11:16:45;;;;;;;5.22;2.28;;;;;;;;;;5015408;28;20021;-81
2023/06/15 11:19:11;;;;;;;2.35;2.05;;;;;;;;;;5011776;28;20030;-82
2023/06/15 11:21:40;;;;;;;4.95;2.67;;;;;;;;;;5021765;28;20029;-82
2023/06/15 11:24:06;;;;;;;4.38;2.80;;;;;;;;;;5022211;28;20033;-83
2023/06/15 11:26:32;;;;;;;9.32;2.95;;;;;;;;;;5020356;28;20018;-83
2023/06/15 11:29:01;;;;;;;3.10;2.60;;;;;;;;;;5024048;28;20436;-82
2023/06/15 11:31:28;;;;;;;11.07;2.47;;;;;;;;;;4990703;28;20050;-81
2023/06/15 11:33:53;;;;;;;6.43;2.55;;;;;;;;;;5010301;28;20018;-82
2023/06/15 11:36:19;;;;;;;6.40;2.40;;;;;;;;;;5010006;28;20029;-83
2023/06/15 11:38:44;;;;;;;3.53;2.35;;;;;;;;;;5021273;28;20022;-81
2023/06/15 11:41:11;;;;;;;2.10;1.85;;;;;;;;;;4994331;28;20022;-82
2023/06/15 11:43:48;;;;;;;5.88;2.63;;;;;;;;;;5008478;28;20053;-82
2023/06/15 11:46:15;;;;;;;3.42;2.17;;;;;;;;;;4995612;28;20040;-82
2023/06/15 11:48:42;;;;;;;2.92;2.30;;;;;;;;;;5019106;28;20101;-83
2023/06/15 11:51:08;;;;;;;3.88;2.22;;;;;;;;;;5018181;28;20037;-82
2023/06/15 11:53:35;;;;;;;2.67;2.00;;;;;;;;;;5006732;28;20022;-83
2023/06/15 11:56:00;;;;;;;2.90;2.42;;;;;;;;;;4994471;28;20030;-83
2023/06/15 11:58:26;;;;;;;7.70;2.25;;;;;;;;;;5011914;28;20025;-83
2023/06/15 12:00:51;;;;;;;3.85;2.60;;;;;;;;;;5017150;28;20018;-83
2023/06/15 12:03:18;;;;;;;5.50;2.60;;;;;;;;;;5022848;28;20081;-82
2023/06/15 12:05:44;;;;;;;13.82;3.53;;;;;;;;;;5002118;28;20504;-82
2023/06/15 12:08:10;;;;;;;4.82;2.47;;;;;;;;;;5018269;28;20455;-82
2023/06/15 12:10:40;;;;;;;3.65;2.67;;;;;;;;;;5017843;28;20148;-82
2023/06/15 12:13:11;;;;;;;4.18;2.63;;;;;;;;;;5018226;28;20108;-83
2023/06/15 12:15:39;;;;;;;7.10;2.75;;;;;;;;;;5017142;28;20033;-83
2023/06/15 12:18:07;;;;;;;4.35;2.50;;;;;;;;;;5034102;28;20233;-82
2023/06/15 12:20:36;;;;;;;6.10;2.50;;;;;;;;;;5037030;28;20064;-83
2023/06/15 12:23:41;;;;;;;6.25;2.25;;;;;;;;;;5028663;28;20026;-84
2023/06/15 12:26:33;;;;;;;2.65;2.10;;;;;;;;;;4998892;28;20036;-83
2023/06/15 12:29:12;;;;;;;4.15;2.13;;;;;;;;;;4990973;28;20041;-83
2023/06/15 12:31:37;;;;;;;3.75;2.47;;;;;;;;;;5010691;28;20519;-83
2023/06/15 12:34:08;;;;;;;5.05;2.40;;;;;;;;;;5004884;28;20034;-82
2023/06/15 12:36:34;;;;;;;3.47;2.10;;;;;;;;;;5027677;28;20017;-82
2023/06/15 12:39:04;;;;;;;3.72;1.92;;;;;;;;;;5033870;28;20266;-83
2023/06/15 12:41:29;;;;;;;7.85;2.30;;;;;;;;;;5021192;28;20010;-83
2023/06/15 12:43:55;;;;;;;6.07;2.05;;;;;;;;;;5007363;28;20527;-83
2023/06/15 12:46:20;;;;;;;7.78;2.55;;;;;;;;;;4990940;28;20052;-83
2023/06/15 12:48:46;;;;;;;6.32;2.25;;;;;;;;;;4997453;28;20106;-83
2023/06/15 12:51:12;;;;;;;2.67;2.33;;;;;;;;;;5015181;28;20460;-82
2023/06/15 12:53:37;;;;;;;2.85;2.30;;;;;;;;;;5010932;28;20048;-82
2023/06/15 12:56:02;;;;;;;2.85;2.38;;;;;;;;;;5021109;28;20031;-83
2023/06/15 12:58:28;;;;;;;5.22;2.65;;;;;;;;;;5019775;28;20022;-82
2023/06/15 13:00:53;;;;;;;2.75;2.20;;;;;;;;;;5028823;28;20036;-82
2023/06/15 13:03:18;;;;;;;1.90;1.70;;;;;;;;;;5017939;28;20057;-83
2023/06/15 13:05:44;;;;;;;3.58;2.17;;;;;;;;;;5024431;28;20028;-83
2023/06/15 13:08:10;;;;;;;1.98;1.77;;;;;;;;;;5007105;28;20021;-83
2023/06/15 13:10:36;;;;;;;4.10;2.00;;;;;;;;;;5021550;28;20022;-82
2023/06/15 13:13:02;;;;;;;3.80;2.10;;;;;;;;;;5018427;28;20029;-83
2023/06/15 13:15:28;;;;;;;5.60;2.45;;;;;;;;;;5018942;28;20076;-83
2023/06/15 13:17:57;;;;;;;5.53;2.30;;;;;;;;;;5020197;28;20026;-82
2023/06/15 13:20:23;;;;;;;3.22;2.00;;;;;;;;;;5002054;28;20087;-84
2023/06/15 13:22:50;;;;;;;8.43;2.25;;;;;;;;;;5028922;28;20025;-82
2023/06/15 13:25:16;;;;;;;3.05;2.28;;;;;;;;;;4994408;28;20074;-83
2023/06/15 13:27:41;;;;;;;2.22;1.90;;;;;;;;;;5010687;28;20150;-83
2023/06/15 13:30:08;;;;;;;2.25;1.90;;;;;;;;;;5016672;28;20033;-83
2023/06/15 13:32:35;;;;;;;2.75;2.10;;;;;;;;;;5015053;28;20021;-85
2023/06/15 13:35:01;;;;;;;2.90;2.20;;;;;;;;;;4995777;28;20125;-85
2023/06/15 13:37:26;;;;;;;2.47;1.98;;;;;;;;;;5021093;28;20049;-83
2023/06/15 13:39:52;;;;;;;2.22;1.95;;;;;;;;;;5020068;28;20037;-84
2023/06/15 13:42:17;;;;;;;2.75;2.00;;;;;;;;;;5025641;28;20038;-84
2023/06/15 13:44:42;;;;;;;3.75;1.88;;;;;;;;;;5016234;28;20495;-84
2023/06/15 13:47:08;;;;;;;2.20;2.00;;;;;;;;;;5017867;28;20484;-84
2023/06/15 13:49:33;;;;;;;3.97;2.00;;;;;;;;;;4992855;28;20026;-84
2023/06/15 13:52:00;;;;;;;3.55;2.10;;;;;;;;;;5019845;28;20060;-84
2023/06/15 13:54:25;;;;;;;2.30;2.10;;;;;;;;;;5000185;28;20026;-85
2023/06/15 13:56:52;;;;;;;3.03;1.90;;;;;;;;;;4997229;28;20032;-84
2023/06/15 13:59:17;;;;;;;3.10;2.00;;;;;;;;;;5002613;28;20030;-85
2023/06/15 14:01:43;;;;;;;2.28;2.08;;;;;;;;;;5018542;28;20383;-85
2023/06/15 14:04:08;;;;;;;2.75;1.80;;;;;;;;;;5000690;28;20045;-84
2023/06/15 14:06:33;;;;;;;2.05;1.85;;;;;;;;;;5018588;28;20381;-83
2023/06/15 14:08:59;;;;;;;2.75;1.80;;;;;;;;;;5003381;28;20526;-84
2023/06/15 14:11:25;;;;;;;2.85;2.10;;;;;;;;;;4996725;28;20029;-84
2023/06/15 14:13:51;;;;;;;3.20;2.10;;;;;;;;;;5024600;28;20022;-84
2023/06/15 14:16:20;;;;;;;1.60;1.50;;;;;;;;;;5031389;28;20037;-84
2023/06/15 14:18:51;;;;;;;3.78;2.00;;;;;;;;;;5004877;28;20022;-84
2023/06/15 14:21:17;;;;;;;2.15;1.67;;;;;;;;;;5006768;28;20033;-84
2023/06/15 14:23:44;;;;;;;1.80;1.70;;;;;;;;;;5009023;28;20484;-83
2023/06/15 14:26:09;;;;;;;3.10;1.70;;;;;;;;;;5018292;28;20033;-83
2023/06/15 14:28:35;;;;;;;2.05;1.90;;;;;;;;;;5010753;28;20124;-83
2023/06/15 14:31:00;;;;;;;2.15;1.80;;;;;;;;;;5031862;28;20050;-83
2023/06/15 14:33:27;;;;;;;2.72;2.15;;;;;;;;;;5037352;28;20060;-83
2023/06/15 14:35:53;;;;;;;2.63;1.95;;;;;;;;;;5009722;28;20029;-83
2023/06/15 14:38:18;;;;;;;3.40;2.13;;;;;;;;;;5019675;28;20030;-83
2023/06/15 14:40:43;;;;;;;2.97;1.75;;;;;;;;;;5000226;28;20026;-83
2023/06/15 14:43:09;;;;;;;4.40;2.10;;;;;;;;;;5021780;28;20512;-83
2023/06/15 14:45:34;;;;;;;2.22;1.75;;;;;;;;;;5022057;28;20543;-83
2023/06/15 14:48:00;;;;;;;2.00;1.80;;;;;;;;;;5022885;28;20029;-82
2023/06/15 14:50:25;;;;;;;2.15;1.75;;;;;;;;;;5002770;28;20092;-82
2023/06/15 14:52:51;;;;;;;3.65;1.90;;;;;;;;;;5020951;28;20452;-84
2023/06/15 14:55:16;;;;;;;2.83;1.80;;;;;;;;;;5026905;28;20040;-83
2023/06/15 14:57:41;;;;;;;2.67;1.95;;;;;;;;;;5038751;28;20030;-83
2023/06/15 15:00:08;;;;;;;1.92;1.70;;;;;;;;;;5031949;28;20075;-83